This is the latest recevied weather packets stored in our database for station/object KD5UIG. If no packets are shown the sender has not sent any weather packets the latest 10 day(s).
| Time | Temp. | Humidity | Pressure | Rain* | Wind** | Luminosity | Snow |
|---|---|---|---|---|---|---|---|
| 1777308355 | 31.11° C | 64% | 1008.5 hPa | 0 mm | - | 780 W/m² | - |
| 1777305055 | 28.89° C | 73% | 1007.9 hPa | 0 mm | - | 628 W/m² | - |
| 1777304760 | 28.89° C | 74% | 1007.9 hPa | 0 mm | - | 617 W/m² | - |
| 1777304456 | 28.33° C | 74% | 1007.8 hPa | 0 mm | - | 606 W/m² | - |
| 1777303555 | 28.89° C | 75% | 1007.7 hPa | 0 mm | - | 578 W/m² | - |
| 1777303255 | 28.33° C | 75% | 1007.6 hPa | 0 mm | - | 534 W/m² | - |
| 1777302093 | 27.78° C | 76% | 1007.4 hPa | 0 mm | - | 496 W/m² | - |
| 1777296954 | 24.44° C | 84% | 1007 hPa | 0 mm | - | 211 W/m² | - |
| 1777294254 | 23.33° C | 86% | 1006.6 hPa | 0 mm | - | 86 W/m² | - |
| 1777292753 | 23.33° C | 86% | 1006.1 hPa | 0 mm | - | 46 W/m² | - |
| 1777292454 | 23.33° C | 86% | 1006.1 hPa | 0 mm | - | 37 W/m² | - |
| 1777291854 | 23.33° C | 86% | 1006.1 hPa | 0 mm | - | 23 W/m² | - |
| 1777290362 | 23.33° C | 86% | 1006.3 hPa | 0 mm | - | 0 W/m² | - |
| 1777287055 | 23.89° C | 85% | 1005.9 hPa | 0 mm | - | 0 W/m² | - |
| 1777286157 | 23.89° C | 85% | 1005.7 hPa | 0 mm | - | 0 W/m² | - |
| 1777285863 | 23.89° C | 85% | 1005.8 hPa | 0 mm | - | 0 W/m² | - |
| 1777282259 | 23.89° C | 85% | 1004.9 hPa | 0 mm | - | 0 W/m² | - |
| 1777277756 | 23.33° C | 87% | 1004.8 hPa | 0 mm | - | 0 W/m² | - |
| 1777277455 | 23.33° C | 87% | 1004.9 hPa | 0 mm | - | 0 W/m² | - |
| 1777276555 | 23.33° C | 87% | 1004.9 hPa | 0 mm | - | 0 W/m² | - |
| 1777276254 | 23.33° C | 87% | 1004.8 hPa | 0 mm | - | 0 W/m² | - |
* Rain latest hour (hover to see other rain measurements)
** Current wind speed in m/s (hover to see current wind gust speed)